LEJR/XRY METAR and TAF weather

Enter ICAO airport designator
Station Type Date Time Source
LEJR METAR 2023/02/05 14:00 UTC NOAA

LEJR 051400Z 34004KT 280V030 CAVOK 18/06 Q1027


Station Type Date Time Source
LEJR Decoded METAR 2023/02/05 14:00 UTC NOAA

Jerez De La Fronteraaeropuerto, Spain (LEJR) 36-45N 006-04W 28M
Feb 05, 2023 - 09:00 AM EST / 2023.02.05 1400 UTC
Wind: from the NNW (340 degrees) at 5 MPH (4 KT) (direction variable):0
Visibility: greater than 7 mile(s):0
Temperature: 64 F (18 C)
Dew Point: 42 F (6 C)
Relative Humidity: 45%
Pressure (altimeter): 30.33 in. Hg (1027 hPa)
ob: LEJR 051400Z 34004KT 280V030 CAVOK 18/06 Q1027
cycle: 14

Station Type Date Time Source
LEJR TAF 2023/02/05 12:41 UTC NOAA

TAF
AMD LEJR 051230Z 0512/0609 12006KT CAVOK TX21/0515Z TN03/0607Z

Example: see airport list